createdAt,value
2023-02-07T00:00:19.874Z,6.32
2023-02-07T00:03:23.520Z,8.32
2023-02-07T00:06:29.578Z,7.32
2023-02-07T00:09:32.945Z,9.25
2023-02-07T00:12:36.410Z,6.38
2023-02-07T00:15:40.056Z,12.57
2023-02-07T00:18:43.801Z,8.00
2023-02-07T00:21:48.851Z,7.32
2023-02-07T00:24:52.566Z,11.23
2023-02-07T00:27:56.281Z,7.18
2023-02-07T00:31:06.379Z,11.07
2023-02-07T00:34:10.131Z,10.55
2023-02-07T00:37:15.061Z,10.75
2023-02-07T00:40:19.577Z,8.20
2023-02-07T00:43:29.615Z,6.00
2023-02-07T00:46:33.810Z,6.15
2023-02-07T00:49:37.358Z,7.57
2023-02-07T00:52:42.418Z,8.80
2023-02-07T00:55:45.942Z,8.57
2023-02-07T00:58:51.016Z,7.28
2023-02-07T01:01:54.874Z,6.05
2023-02-07T01:05:01.358Z,5.43
2023-02-07T01:08:07.262Z,4.28
2023-02-07T01:11:16.620Z,6.32
2023-02-07T01:14:20.268Z,8.30
2023-02-07T01:17:24.129Z,10.07
2023-02-07T01:20:29.622Z,8.38
2023-02-07T01:23:34.669Z,8.02
2023-02-07T01:26:38.801Z,4.88
2023-02-07T01:29:42.406Z,5.60
2023-02-07T01:32:45.910Z,5.35
2023-02-07T01:35:49.403Z,6.25
2023-02-07T01:38:55.133Z,6.90
2023-02-07T01:41:58.784Z,5.20
2023-02-07T01:45:07.508Z,5.82
2023-02-07T01:48:13.473Z,8.45
2023-02-07T01:51:17.132Z,5.60
2023-02-07T01:54:23.272Z,8.48
2023-02-07T01:57:27.716Z,11.50
2023-02-07T02:00:31.460Z,20.67
2023-02-07T02:03:37.325Z,7.47
2023-02-07T02:06:42.003Z,8.05
2023-02-07T02:09:47.010Z,6.53
2023-02-07T02:12:59.770Z,6.43
2023-02-07T02:16:06.458Z,7.93
2023-02-07T02:19:25.239Z,5.57
2023-02-07T02:22:51.654Z,6.10
2023-02-07T02:26:14.134Z,16.20
2023-02-07T02:29:36.404Z,9.60
2023-02-07T02:32:51.401Z,6.20
2023-02-07T02:35:59.292Z,6.65
2023-02-07T02:39:04.732Z,8.15
2023-02-07T02:42:12.099Z,5.77
2023-02-07T02:45:20.514Z,5.00
2023-02-07T02:48:25.801Z,10.85
2023-02-07T02:51:30.739Z,10.73
2023-02-07T02:54:37.272Z,5.78
2023-02-07T02:57:54.146Z,9.18
2023-02-07T03:01:03.985Z,6.32
2023-02-07T03:04:15.980Z,6.75
2023-02-07T03:07:33.064Z,5.70
2023-02-07T03:10:40.624Z,4.85
2023-02-07T03:13:53.820Z,7.53
2023-02-07T03:17:00.354Z,5.72
2023-02-07T03:20:09.890Z,7.53
2023-02-07T03:23:13.663Z,9.75
2023-02-07T03:26:17.413Z,8.20
2023-02-07T03:29:22.154Z,8.38
2023-02-07T03:32:26.850Z,9.23
2023-02-07T03:35:35.174Z,5.20
2023-02-07T03:38:39.092Z,5.40
2023-02-07T03:41:44.553Z,7.47
2023-02-07T03:44:49.447Z,7.03
2023-02-07T03:47:52.933Z,6.07
2023-02-07T03:50:57.977Z,10.25
2023-02-07T03:54:01.574Z,9.07
2023-02-07T03:57:05.153Z,7.63
2023-02-07T04:00:09.180Z,9.95
2023-02-07T04:03:19.302Z,8.47
2023-02-07T04:06:24.483Z,6.77
2023-02-07T04:09:27.913Z,9.43
2023-02-07T04:12:32.816Z,9.00
2023-02-07T04:15:36.470Z,8.75
2023-02-07T04:18:40.827Z,12.02
2023-02-07T04:21:45.638Z,18.17
2023-02-07T04:24:49.374Z,7.90
2023-02-07T04:27:52.787Z,10.87
2023-02-07T04:30:56.472Z,13.57
2023-02-07T04:34:00.132Z,14.40
2023-02-07T04:37:06.429Z,9.98
2023-02-07T04:40:10.347Z,9.25
2023-02-07T04:43:13.840Z,12.90
2023-02-07T04:46:17.254Z,11.95
2023-02-07T04:49:20.791Z,10.57
2023-02-07T04:52:28.667Z,10.55
2023-02-07T04:55:34.324Z,10.18
2023-02-07T04:58:37.721Z,11.05
2023-02-07T05:01:41.242Z,10.63
2023-02-07T05:04:44.684Z,10.65
2023-02-07T05:07:49.539Z,13.55
2023-02-07T05:10:56.316Z,12.15
2023-02-07T05:13:59.830Z,12.85
2023-02-07T05:17:03.792Z,13.53
2023-02-07T05:20:10.218Z,12.43
2023-02-07T05:23:15.131Z,14.53
2023-02-07T05:26:18.482Z,14.00
2023-02-07T05:29:21.958Z,12.82
2023-02-07T05:32:42.886Z,18.50
2023-02-07T05:35:46.557Z,19.33
2023-02-07T05:38:51.275Z,12.10
2023-02-07T05:41:54.596Z,19.10
2023-02-07T05:44:57.945Z,19.63
2023-02-07T05:48:01.590Z,15.25
2023-02-07T05:51:05.963Z,13.37
2023-02-07T05:54:10.636Z,14.97
2023-02-07T05:57:13.916Z,18.23
2023-02-07T06:00:19.349Z,13.48
2023-02-07T06:03:22.768Z,13.10
2023-02-07T06:06:26.282Z,15.85
2023-02-07T06:09:31.609Z,20.33
2023-02-07T06:12:34.950Z,15.77
2023-02-07T06:15:38.557Z,24.27
2023-02-07T06:18:42.158Z,15.82
2023-02-07T06:21:46.953Z,13.25
2023-02-07T06:24:51.797Z,15.85
2023-02-07T06:27:55.185Z,16.55
2023-02-07T06:30:58.667Z,18.45
2023-02-07T06:34:02.112Z,18.10
2023-02-07T06:37:05.490Z,14.13
2023-02-07T06:40:11.036Z,17.40
2023-02-07T06:43:14.530Z,14.07
2023-02-07T06:46:17.918Z,14.57
2023-02-07T06:49:21.272Z,14.83
2023-02-07T06:52:24.727Z,17.33
2023-02-07T06:55:29.823Z,16.92
2023-02-07T06:58:34.097Z,12.50
2023-02-07T07:01:37.471Z,14.82
2023-02-07T07:04:41.010Z,24.60
2023-02-07T07:07:44.609Z,12.88
2023-02-07T07:10:49.369Z,21.57
2023-02-07T07:13:52.742Z,16.63
2023-02-07T07:16:56.952Z,19.67
2023-02-07T07:20:00.751Z,22.38
2023-02-07T07:23:04.258Z,16.27
2023-02-07T07:26:09.026Z,17.80
2023-02-07T07:29:12.444Z,18.55
2023-02-07T07:32:25.183Z,17.10
2023-02-07T07:35:35.726Z,17.83
2023-02-07T07:38:40.283Z,13.20
2023-02-07T07:41:45.285Z,16.85
2023-02-07T07:44:55.899Z,14.70
2023-02-07T07:47:59.375Z,17.92
2023-02-07T07:51:02.796Z,14.52
2023-02-07T07:54:06.255Z,15.40
2023-02-07T07:57:11.106Z,14.95
2023-02-07T08:00:15.372Z,20.80
2023-02-07T08:03:20.404Z,16.15
2023-02-07T08:06:23.944Z,15.57
2023-02-07T08:09:27.503Z,15.38
2023-02-07T08:12:32.374Z,13.15
2023-02-07T08:15:35.783Z,18.90
2023-02-07T08:18:39.412Z,16.15
2023-02-07T08:21:44.740Z,20.63
2023-02-07T08:24:48.270Z,13.93
2023-02-07T08:27:53.069Z,14.75
2023-02-07T08:30:56.746Z,15.93
2023-02-07T08:34:00.170Z,18.60
2023-02-07T08:37:03.579Z,13.75
2023-02-07T08:40:07.412Z,15.30
2023-02-07T08:43:13.180Z,14.93
2023-02-07T08:46:16.702Z,12.65
2023-02-07T08:49:20.558Z,12.52
2023-02-07T08:52:24.058Z,15.90
2023-02-07T08:55:27.687Z,12.65
2023-02-07T08:58:32.587Z,13.75
2023-02-07T09:01:36.141Z,18.88
2023-02-07T09:04:41.446Z,14.35
2023-02-07T09:07:44.878Z,14.88
2023-02-07T09:10:49.520Z,14.80
2023-02-07T09:13:54.441Z,23.92
2023-02-07T09:16:57.936Z,15.57
2023-02-07T09:20:01.458Z,19.15
2023-02-07T09:23:20.026Z,14.52
2023-02-07T09:26:26.430Z,14.52
2023-02-07T09:29:32.626Z,16.98
2023-02-07T09:32:36.026Z,12.77
2023-02-07T09:35:39.724Z,15.63
2023-02-07T09:38:44.461Z,14.63
2023-02-07T09:41:53.614Z,22.52
2023-02-07T09:45:01.534Z,15.82
2023-02-07T09:48:10.903Z,15.73
2023-02-07T09:51:15.284Z,15.77
2023-02-07T09:54:22.238Z,19.13
2023-02-07T09:57:27.162Z,18.90
2023-02-07T10:00:33.253Z,16.67
2023-02-07T10:03:39.185Z,18.05
2023-02-07T10:06:43.941Z,17.98
2023-02-07T10:09:47.558Z,20.00
2023-02-07T10:12:59.907Z,20.95
2023-02-07T10:16:15.060Z,20.25
2023-02-07T10:19:22.122Z,18.63
2023-02-07T10:22:28.010Z,15.60
2023-02-07T10:25:36.267Z,21.85
2023-02-07T10:28:48.033Z,19.90
2023-02-07T10:31:55.453Z,19.58
2023-02-07T10:35:01.978Z,24.05
2023-02-07T10:38:06.648Z,20.83
2023-02-07T10:41:13.113Z,20.55
2023-02-07T10:44:19.207Z,17.95
2023-02-07T10:47:26.161Z,23.95
2023-02-07T10:50:30.808Z,22.90
2023-02-07T10:53:54.996Z,22.23
2023-02-07T10:57:02.586Z,22.40
2023-02-07T11:00:08.739Z,19.48
2023-02-07T11:03:17.270Z,23.30
2023-02-07T11:06:26.393Z,20.52
2023-02-07T11:09:29.829Z,20.45
2023-02-07T11:12:33.240Z,21.80
2023-02-07T11:15:42.162Z,15.05
2023-02-07T11:18:47.985Z,24.30
2023-02-07T11:21:52.114Z,23.45
2023-02-07T11:25:01.663Z,25.55
2023-02-07T11:28:05.311Z,22.58
2023-02-07T11:31:09.887Z,20.30
2023-02-07T11:34:26.453Z,23.63
2023-02-07T11:37:32.381Z,19.38
2023-02-07T11:40:40.171Z,21.92
2023-02-07T11:43:53.043Z,19.08
2023-02-07T11:46:58.386Z,18.85
2023-02-07T11:50:05.619Z,24.85
2023-02-07T11:53:10.201Z,23.80
2023-02-07T11:56:22.881Z,23.17
2023-02-07T11:59:28.174Z,22.70
2023-02-07T12:02:33.501Z,25.00
2023-02-07T12:05:40.225Z,25.70
2023-02-07T12:08:45.501Z,20.85
2023-02-07T12:11:49.776Z,21.20
2023-02-07T12:14:54.835Z,27.75
2023-02-07T12:18:01.017Z,23.02
2023-02-07T12:21:15.400Z,29.45
2023-02-07T12:24:26.056Z,26.70
2023-02-07T12:27:31.161Z,22.98
2023-02-07T12:30:37.471Z,22.05
2023-02-07T12:33:55.344Z,22.65
2023-02-07T12:37:05.505Z,24.58
2023-02-07T12:40:17.048Z,31.23
2023-02-07T12:43:26.206Z,25.63
2023-02-07T12:46:37.363Z,25.02
2023-02-07T12:50:02.316Z,26.83
2023-02-07T12:53:15.588Z,20.55
2023-02-07T12:56:31.159Z,23.77
2023-02-07T12:59:41.294Z,21.95
2023-02-07T13:02:55.583Z,23.85
2023-02-07T13:06:03.783Z,17.05
2023-02-07T13:09:11.954Z,28.27
2023-02-07T13:12:17.532Z,24.20
2023-02-07T13:15:25.467Z,20.90
2023-02-07T13:18:34.482Z,31.55
2023-02-07T13:21:41.099Z,25.75
2023-02-07T13:24:48.212Z,24.88
2023-02-07T13:27:53.857Z,29.15
2023-02-07T13:30:58.361Z,22.95
2023-02-07T13:34:03.304Z,25.80
2023-02-07T13:37:16.356Z,23.65
2023-02-07T13:40:29.623Z,25.40
2023-02-07T13:43:42.095Z,24.50
2023-02-07T13:47:03.534Z,22.15
2023-02-07T13:50:13.913Z,25.27
2023-02-07T13:53:28.882Z,23.08
2023-02-07T13:56:51.576Z,28.05
2023-02-07T14:00:09.823Z,23.92
2023-02-07T14:03:36.952Z,25.45
2023-02-07T14:06:47.129Z,18.00
2023-02-07T14:09:51.028Z,30.33
2023-02-07T14:12:55.944Z,40.50
2023-02-07T14:16:01.267Z,31.08
2023-02-07T14:19:06.159Z,28.27
2023-02-07T14:22:15.732Z,53.45
2023-02-07T14:25:23.898Z,33.88
2023-02-07T14:28:37.136Z,28.00
2023-02-07T14:31:42.232Z,31.30
2023-02-07T14:35:00.284Z,29.65
2023-02-07T14:38:22.411Z,24.85
2023-02-07T14:41:29.276Z,32.47
2023-02-07T14:44:36.885Z,32.00
2023-02-07T14:47:40.364Z,25.88
2023-02-07T14:50:53.159Z,29.73
2023-02-07T14:53:59.632Z,30.15
2023-02-07T14:57:06.474Z,26.27
2023-02-07T15:00:20.477Z,26.08
2023-02-07T15:03:24.117Z,23.52
2023-02-07T15:06:32.677Z,24.92
2023-02-07T15:09:39.622Z,29.02
2023-02-07T15:12:56.049Z,28.45
2023-02-07T15:16:07.825Z,31.10
2023-02-07T15:19:13.670Z,26.25
2023-02-07T15:22:26.220Z,25.45
2023-02-07T15:25:31.348Z,53.35
2023-02-07T15:28:34.920Z,28.95
2023-02-07T15:31:41.335Z,28.92
2023-02-07T15:34:46.739Z,27.25
2023-02-07T15:37:53.221Z,25.38
2023-02-07T15:40:56.657Z,23.58
2023-02-07T15:44:01.268Z,22.05
2023-02-07T15:47:07.229Z,23.42
2023-02-07T15:50:22.481Z,18.52
2023-02-07T15:53:27.968Z,24.40
2023-02-07T15:56:34.777Z,29.23
2023-02-07T15:59:38.815Z,23.70
2023-02-07T16:02:47.425Z,23.17
2023-02-07T16:06:02.293Z,24.10
2023-02-07T16:09:14.186Z,23.42
2023-02-07T16:12:31.672Z,21.40
2023-02-07T16:15:36.749Z,26.50
2023-02-07T16:18:42.456Z,28.02
2023-02-07T16:21:47.020Z,26.60
2023-02-07T16:24:51.631Z,24.75
2023-02-07T16:27:55.414Z,30.48
2023-02-07T16:30:59.055Z,26.85
2023-02-07T16:34:03.968Z,31.48
2023-02-07T16:37:07.811Z,26.65
2023-02-07T16:40:13.067Z,22.38
2023-02-07T16:43:25.836Z,24.58
2023-02-07T16:46:29.968Z,33.75
2023-02-07T16:49:35.203Z,30.38
2023-02-07T16:52:38.648Z,35.95
2023-02-07T16:55:42.435Z,39.47
2023-02-07T16:58:46.224Z,32.75
2023-02-07T17:01:50.449Z,34.97
2023-02-07T17:04:55.212Z,25.50
2023-02-07T17:07:58.574Z,27.40
2023-02-07T17:11:03.508Z,32.97
2023-02-07T17:14:07.424Z,28.00
2023-02-07T17:17:11.966Z,28.95
2023-02-07T17:20:22.900Z,30.85
2023-02-07T17:23:28.410Z,29.00
2023-02-07T17:26:32.518Z,30.73
2023-02-07T17:29:36.071Z,31.77
2023-02-07T17:32:39.466Z,33.08
2023-02-07T17:35:44.294Z,30.88
2023-02-07T17:38:47.750Z,27.58
2023-02-07T17:41:51.142Z,39.15
2023-02-07T17:44:54.528Z,37.97
2023-02-07T17:47:58.366Z,33.20
2023-02-07T17:51:03.028Z,32.70
2023-02-07T17:54:06.751Z,40.45
2023-02-07T17:57:10.467Z,34.53
2023-02-07T18:00:17.982Z,34.90
2023-02-07T18:03:21.493Z,32.70
2023-02-07T18:06:27.794Z,39.47
2023-02-07T18:09:31.156Z,39.70
2023-02-07T18:12:35.373Z,38.30
2023-02-07T18:15:38.818Z,34.08
2023-02-07T18:18:42.277Z,39.15
2023-02-07T18:21:47.192Z,36.25
2023-02-07T18:24:50.574Z,36.55
2023-02-07T18:27:54.260Z,37.50
2023-02-07T18:30:57.920Z,35.53
2023-02-07T18:34:01.384Z,35.42
2023-02-07T18:37:06.333Z,35.45
2023-02-07T18:40:10.171Z,34.53
2023-02-07T18:43:13.576Z,34.78
2023-02-07T18:46:17.921Z,34.38
2023-02-07T18:49:22.802Z,33.92
2023-02-07T18:52:27.757Z,38.28
2023-02-07T18:55:31.085Z,33.30
2023-02-07T18:58:35.100Z,46.60
2023-02-07T19:01:40.977Z,55.38
2023-02-07T19:04:44.601Z,33.88
2023-02-07T19:07:49.432Z,31.48
2023-02-07T19:10:56.000Z,26.20
2023-02-07T19:13:59.665Z,29.52
2023-02-07T19:17:03.137Z,27.27
2023-02-07T19:20:07.195Z,28.10
2023-02-07T19:23:11.939Z,30.38
2023-02-07T19:26:15.410Z,30.55
2023-02-07T19:29:20.236Z,40.63
2023-02-07T19:32:24.171Z,31.08
2023-02-07T19:35:27.779Z,45.80
2023-02-07T19:38:32.768Z,34.03
2023-02-07T19:41:36.566Z,35.45
2023-02-07T19:44:40.007Z,42.40
2023-02-07T19:47:43.334Z,61.83
2023-02-07T19:50:46.689Z,74.13
2023-02-07T19:53:54.012Z,63.17
2023-02-07T19:56:57.688Z,68.35
2023-02-07T20:00:00.960Z,56.95
2023-02-07T20:03:05.165Z,49.25
2023-02-07T20:06:12.014Z,39.80
2023-02-07T20:09:16.903Z,40.20
2023-02-07T20:12:20.269Z,31.00
2023-02-07T20:15:24.406Z,47.63
2023-02-07T20:18:29.565Z,39.83
2023-02-07T20:21:34.404Z,46.53
2023-02-07T20:24:39.125Z,54.15
2023-02-07T20:27:42.424Z,58.38
2023-02-07T20:30:46.178Z,51.83
2023-02-07T20:33:49.651Z,48.95
2023-02-07T20:36:53.590Z,41.25
2023-02-07T20:39:58.392Z,42.17
2023-02-07T20:43:01.696Z,28.95
2023-02-07T20:46:06.091Z,27.85
2023-02-07T20:49:10.881Z,31.38
2023-02-07T20:52:14.632Z,31.50
2023-02-07T20:55:20.448Z,24.65
2023-02-07T20:58:23.843Z,33.95
2023-02-07T21:01:28.245Z,44.88
2023-02-07T21:04:31.880Z,78.75
2023-02-07T21:07:35.326Z,53.00
2023-02-07T21:10:40.619Z,53.55
2023-02-07T21:13:45.920Z,52.78
2023-02-07T21:16:51.017Z,35.80
2023-02-07T21:19:54.401Z,36.17
2023-02-07T21:22:57.975Z,31.25
2023-02-07T21:26:05.692Z,30.65
2023-02-07T21:29:09.184Z,21.92
2023-02-07T21:32:12.574Z,30.33
2023-02-07T21:35:16.232Z,33.77
2023-02-07T21:38:20.484Z,32.90
2023-02-07T21:41:26.055Z,30.35
2023-02-07T21:44:29.670Z,36.38
2023-02-07T21:47:33.639Z,31.63
2023-02-07T21:50:37.175Z,36.25
2023-02-07T21:53:40.809Z,36.67
2023-02-07T21:56:46.014Z,31.90
2023-02-07T21:59:49.472Z,33.97
2023-02-07T22:02:52.913Z,34.45
2023-02-07T22:05:56.383Z,28.88
2023-02-07T22:09:00.451Z,31.10
2023-02-07T22:12:05.303Z,24.50
2023-02-07T22:15:08.906Z,30.40
2023-02-07T22:18:12.255Z,24.27
2023-02-07T22:21:16.433Z,25.50
2023-02-07T22:24:20.680Z,25.60
2023-02-07T22:27:25.461Z,34.17
2023-02-07T22:30:28.959Z,30.08
2023-02-07T22:33:32.374Z,32.83
2023-02-07T22:36:37.409Z,30.73
2023-02-07T22:39:41.028Z,36.95
2023-02-07T22:42:45.809Z,35.53
2023-02-07T22:45:49.238Z,37.87
2023-02-07T22:48:53.309Z,36.90
2023-02-07T22:51:56.733Z,35.03
2023-02-07T22:55:00.164Z,31.63
2023-02-07T22:58:05.095Z,36.17
2023-02-07T23:01:09.341Z,37.57
2023-02-07T23:04:15.257Z,25.45
2023-02-07T23:07:18.862Z,39.80
2023-02-07T23:10:22.343Z,37.22
2023-02-07T23:13:27.053Z,36.00
2023-02-07T23:16:31.217Z,27.07
2023-02-07T23:19:34.702Z,22.63
2023-02-07T23:22:38.558Z,24.40
2023-02-07T23:25:44.318Z,26.52
2023-02-07T23:28:49.237Z,30.27
2023-02-07T23:31:52.811Z,28.27
2023-02-07T23:34:56.165Z,28.03
2023-02-07T23:37:59.642Z,29.23
2023-02-07T23:41:03.729Z,30.80
2023-02-07T23:44:08.994Z,26.73
2023-02-07T23:47:12.979Z,29.80
2023-02-07T23:50:18.370Z,31.27
2023-02-07T23:53:21.803Z,31.70
2023-02-07T23:56:25.600Z,27.30
2023-02-07T23:59:30.347Z,74.60
